Fentange, Luxembourg
Current Conditions -  °F | °C
As of 3:50 PM on Friday 19 Dec 2014 (Local Time) from ELLX Reporting Station
Moderate Rain Moderate Rain  
Wind Chill: 42°   Ceiling: 700
Heat Index: 48°   Visibility: 4mi
Dew Point: 48°   Wind: 18mph
Humidity: 100%   Direction: 240°WSW
Pressure: 29.97"   Gusts: NA
Location:  49.56°N, 6.15°E
Report Text: ELLX 191450Z 24016KT 6000 RA SCT005 BKN007 09/09 Q1015 TEMPO 24020G30KT 4000
Loading
Personal Weather Stations






























Interactive Weather Map New forecast layout! Learn more

10-Day Weather Forecast

Advertisements
Track Severe Weather on mobile